Time;durP1;ratioP1;P1;durP2;ratioP2;P2;SDS_P1;SDS_P2;PMS_P1;PMS_P2;Temp;Humidity;BMP_temperature;BMP_pressure;BME280_temperature;BME280_humidity;BME280_pressure;Samples;Min_cycle;Max_cycle;Signal;HPM_P1;HPM_P2
2021/12/28 00:00:54;;;;;;;45.38;28.80;;;7.20;99.90;;;;;;5006827;28;20133;-68
2021/12/28 00:03:20;;;;;;;43.10;26.17;;;7.20;99.90;;;;;;4973538;28;20114;-68
2021/12/28 00:05:46;;;;;;;41.35;27.15;;;7.20;99.90;;;;;;4989894;28;20578;-68
2021/12/28 00:08:13;;;;;;;38.05;23.67;;;7.20;99.90;;;;;;4989853;28;20126;-68
2021/12/28 00:10:39;;;;;;;38.10;24.20;;;7.20;99.90;;;;;;4989888;28;20049;-67
2021/12/28 00:13:05;;;;;;;39.03;26.02;;;7.30;99.90;;;;;;4989911;28;20578;-67
2021/12/28 00:15:35;;;;;;;44.20;25.95;;;7.30;99.90;;;;;;4989806;28;20053;-68
2021/12/28 00:18:03;;;;;;;39.40;24.15;;;7.30;99.90;;;;;;4989743;28;20058;-68
2021/12/28 00:20:33;;;;;;;38.22;24.08;;;7.30;99.90;;;;;;4987315;28;20125;-67
2021/12/28 00:23:00;;;;;;;;;;;7.30;99.90;;;;;;4990456;28;20046;-67
2021/12/28 00:25:26;;;;;;;31.20;20.25;;;7.30;99.90;;;;;;4973388;28;20229;-68
2021/12/28 00:27:52;;;;;;;40.30;25.48;;;7.30;99.90;;;;;;4990037;28;20042;-67
2021/12/28 00:30:19;;;;;;;45.10;27.30;;;7.30;99.90;;;;;;4989436;28;20449;-67
2021/12/28 00:32:52;;;;;;;37.53;23.90;;;7.30;99.90;;;;;;4967650;28;20446;-68
2021/12/28 00:35:21;;;;;;;40.28;23.50;;;7.30;99.90;;;;;;4970026;28;20130;-68
2021/12/28 00:37:47;;;;;;;47.63;27.80;;;7.30;99.90;;;;;;4970180;28;20462;-67
2021/12/28 00:40:12;;;;;;;52.88;29.63;;;7.30;99.90;;;;;;4970139;28;20126;-68
2021/12/28 00:42:38;;;;;;;52.70;28.42;;;7.30;99.90;;;;;;4953975;28;20049;-68
2021/12/28 00:45:05;;;;;;;58.22;30.25;;;7.30;99.90;;;;;;4953832;28;20051;-68
2021/12/28 00:47:30;;;;;;;49.03;28.55;;;7.30;99.90;;;;;;4969974;28;20512;-68
2021/12/28 00:49:56;;;;;;;59.22;31.70;;;7.30;99.90;;;;;;4967474;28;20043;-68
2021/12/28 00:52:23;;;;;;;57.40;29.67;;;7.40;99.90;;;;;;4953943;28;20043;-68
2021/12/28 00:54:48;;;;;;;72.03;33.83;;;7.30;99.90;;;;;;5002419;28;20042;-68
2021/12/28 00:57:15;;;;;;;66.03;30.98;;;7.40;99.90;;;;;;4953878;28;20039;-68
2021/12/28 00:59:41;;;;;;;57.90;29.55;;;7.40;99.90;;;;;;4953811;28;20043;-68
2021/12/28 01:02:06;;;;;;;53.63;27.67;;;7.30;99.90;;;;;;4953744;28;20392;-68
2021/12/28 01:04:32;;;;;;;71.18;33.03;;;7.30;99.90;;;;;;4969985;28;20269;-68
2021/12/28 01:06:58;;;;;;;76.72;32.17;;;7.30;99.90;;;;;;4969692;28;20047;-68
2021/12/28 01:09:31;;;;;;;57.28;28.55;;;7.40;99.90;;;;;;4953711;28;20120;-68
2021/12/28 01:12:04;;;;;;;50.42;24.85;;;7.40;99.90;;;;;;4953868;28;20088;-68
2021/12/28 01:14:30;;;;;;;80.35;33.92;;;7.40;99.90;;;;;;4969520;28;20557;-68
2021/12/28 01:16:59;;;;;;;68.70;31.65;;;7.40;99.90;;;;;;4971241;28;20061;-68
2021/12/28 01:19:26;;;;;;;122.75;43.22;;;7.40;99.90;;;;;;4974027;28;20079;-68
2021/12/28 01:21:52;;;;;;;122.45;42.00;;;7.40;99.90;;;;;;5008399;28;20053;-68
2021/12/28 01:24:18;;;;;;;101.95;38.58;;;7.40;99.90;;;;;;5024881;28;20074;-68
2021/12/28 01:26:48;;;;;;;131.25;42.70;;;7.40;99.90;;;;;;5024782;28;20046;-68
2021/12/28 01:29:14;;;;;;;111.27;39.90;;;7.40;99.90;;;;;;5024672;28;20081;-68
2021/12/28 01:31:40;;;;;;;152.00;47.75;;;7.40;99.90;;;;;;5024916;28;20674;-67
2021/12/28 01:34:08;;;;;;;117.80;41.50;;;7.40;99.90;;;;;;4959133;28;20164;-68
2021/12/28 01:36:34;;;;;;;109.53;41.53;;;7.40;99.90;;;;;;5003947;28;20045;-68
2021/12/28 01:39:00;;;;;;;103.47;36.22;;;7.40;99.90;;;;;;4988888;28;20061;-68
2021/12/28 01:41:26;;;;;;;89.63;35.55;;;7.40;99.90;;;;;;4988479;28;20507;-68
2021/12/28 01:43:57;;;;;;;127.32;44.22;;;7.40;99.90;;;;;;5004750;28;20046;-68
2021/12/28 01:46:24;;;;;;;143.93;48.05;;;7.50;99.90;;;;;;4988754;28;20449;-68
2021/12/28 01:48:50;;;;;;;135.65;44.63;;;7.40;99.90;;;;;;5004739;28;20507;-68
2021/12/28 01:51:22;;;;;;;120.57;41.05;;;7.50;99.90;;;;;;4986163;28;20479;-68
2021/12/28 01:53:52;;;;;;;123.30;44.50;;;7.40;99.90;;;;;;5004799;28;20517;-68
2021/12/28 01:56:26;;;;;;;137.30;44.45;;;7.50;99.90;;;;;;5004826;28;20475;-68
2021/12/28 01:58:53;;;;;;;113.55;41.25;;;7.50;99.90;;;;;;5004670;28;20042;-68
2021/12/28 02:01:19;;;;;;;89.35;32.92;;;7.40;99.90;;;;;;5004616;28;20483;-68
2021/12/28 02:03:45;;;;;;;95.93;33.92;;;7.50;99.90;;;;;;5005028;28;20045;-68
2021/12/28 02:06:12;;;;;;;94.72;36.70;;;7.50;99.90;;;;;;4988433;28;20046;-68
2021/12/28 02:08:39;;;;;;;77.60;30.73;;;7.50;99.90;;;;;;4988217;28;20046;-68
2021/12/28 02:11:06;;;;;;;55.58;25.33;;;7.60;99.90;;;;;;4988464;28;20042;-67
2021/12/28 02:13:32;;;;;;;90.32;37.10;;;7.60;99.90;;;;;;5004773;28;20069;-68
2021/12/28 02:15:59;;;;;;;71.78;31.90;;;7.60;99.90;;;;;;4956471;28;20109;-68
2021/12/28 02:18:27;;;;;;;69.57;33.45;;;7.50;99.90;;;;;;5004457;28;20429;-68
2021/12/28 02:20:54;;;;;;;69.78;30.95;;;7.60;99.90;;;;;;4985898;28;20046;-68
2021/12/28 02:23:20;;;;;;;76.45;32.67;;;7.60;99.90;;;;;;5004376;28;20050;-68
2021/12/28 02:25:46;;;;;;;70.80;29.48;;;7.60;99.90;;;;;;5004275;28;20099;-68
2021/12/28 02:28:14;;;;;;;68.60;28.23;;;7.60;99.90;;;;;;5004581;28;20043;-68
2021/12/28 02:30:44;;;;;;;55.72;27.85;;;7.60;99.90;;;;;;4971705;28;20047;-68
2021/12/28 02:33:10;;;;;;;61.50;27.55;;;7.60;99.90;;;;;;4981438;28;20411;-68
2021/12/28 02:35:37;;;;;;;68.45;31.95;;;7.60;99.90;;;;;;4991194;28;20041;-67
2021/12/28 02:38:05;;;;;;;66.68;31.92;;;7.70;99.90;;;;;;4991413;28;20049;-67
2021/12/28 02:40:34;;;;;;;69.30;28.38;;;7.70;99.90;;;;;;5007652;28;20046;-67
2021/12/28 02:43:02;;;;;;;59.72;27.48;;;7.70;99.90;;;;;;4991122;28;20555;-68
2021/12/28 02:45:35;;;;;;;58.03;26.55;;;7.70;99.90;;;;;;5007449;28;20046;-68
2021/12/28 02:48:01;;;;;;;61.35;31.48;;;7.70;99.90;;;;;;4993301;28;20268;-68
2021/12/28 02:50:31;;;;;;;59.03;29.67;;;7.70;99.90;;;;;;4991881;28;20053;-68
2021/12/28 02:52:58;;;;;;;60.05;30.23;;;7.70;99.90;;;;;;4994408;28;20037;-68
2021/12/28 02:55:27;;;;;;;60.78;27.92;;;7.80;99.90;;;;;;4994190;28;20505;-68
2021/12/28 02:58:00;;;;;;;62.05;29.30;;;7.80;99.90;;;;;;4978314;28;20418;-68
2021/12/28 03:00:35;;;;;;;62.85;28.98;;;7.80;99.90;;;;;;5027363;28;20049;-68
2021/12/28 03:03:07;;;;;;;61.13;27.20;;;7.80;99.90;;;;;;5027273;28;20101;-68
2021/12/28 03:05:34;;;;;;;62.80;29.35;;;7.80;99.90;;;;;;4994360;28;20045;-68
2021/12/28 03:08:00;;;;;;;48.80;22.92;;;7.80;99.90;;;;;;5026876;28;20053;-68
2021/12/28 03:10:26;;;;;;;47.78;22.27;;;7.80;99.90;;;;;;4993951;28;20038;-68
2021/12/28 03:12:51;;;;;;;45.17;23.95;;;7.90;99.90;;;;;;4994373;28;20046;-68
2021/12/28 03:15:17;;;;;;;53.10;27.05;;;7.80;99.90;;;;;;4994013;28;20103;-68
2021/12/28 03:17:43;;;;;;;57.70;26.27;;;7.80;99.90;;;;;;4967346;28;20047;-68
2021/12/28 03:20:14;;;;;;;51.22;25.08;;;7.80;99.90;;;;;;4968985;28;20051;-68
2021/12/28 03:22:41;;;;;;;57.58;26.17;;;7.80;99.90;;;;;;4971193;28;20130;-68
2021/12/28 03:25:08;;;;;;;65.68;27.05;;;7.80;99.90;;;;;;4987706;28;20394;-68
2021/12/28 03:27:34;;;;;;;47.97;23.45;;;7.80;99.90;;;;;;5003671;28;20049;-68
2021/12/28 03:30:00;;;;;;;49.45;23.65;;;7.80;99.90;;;;;;4954961;28;20043;-68
2021/12/28 03:32:26;;;;;;;55.40;23.92;;;7.90;99.90;;;;;;4999972;28;20336;-68
2021/12/28 03:34:52;;;;;;;54.95;25.38;;;7.90;99.90;;;;;;4967906;28;20039;-68
2021/12/28 03:37:17;;;;;;;43.53;21.08;;;8.00;99.90;;;;;;4951767;28;20049;-68
2021/12/28 03:39:43;;;;;;;48.72;23.77;;;7.90;99.90;;;;;;4936123;29;20082;-68
2021/12/28 03:42:09;;;;;;;43.53;21.83;;;7.90;99.90;;;;;;4951632;28;20492;-68
2021/12/28 03:44:35;;;;;;;45.53;23.05;;;8.00;99.90;;;;;;4935996;29;20050;-68
2021/12/28 03:47:03;;;;;;;52.90;23.58;;;8.00;99.90;;;;;;4951426;28;20495;-68
2021/12/28 03:49:29;;;;;;;47.30;22.52;;;8.00;99.90;;;;;;4933267;29;20101;-68
2021/12/28 03:51:55;;;;;;;47.80;22.92;;;8.00;99.90;;;;;;4935659;28;20051;-68
2021/12/28 03:54:21;;;;;;;50.20;23.00;;;7.90;99.90;;;;;;4951593;28;20039;-68
2021/12/28 03:56:47;;;;;;;39.78;20.55;;;7.90;99.90;;;;;;4951498;28;20047;-67
2021/12/28 03:59:12;;;;;;;54.72;24.52;;;8.00;99.90;;;;;;4950783;28;20039;-68
2021/12/28 04:01:38;;;;;;;42.92;21.92;;;7.90;99.90;;;;;;4935290;28;20051;-68
2021/12/28 04:04:04;;;;;;;41.78;21.50;;;7.90;99.90;;;;;;4935708;29;20043;-68
2021/12/28 04:06:31;;;;;;;40.03;20.52;;;7.90;99.90;;;;;;4951305;28;20047;-68
2021/12/28 04:08:58;;;;;;;43.92;21.73;;;8.00;99.90;;;;;;4951303;29;20047;-67
2021/12/28 04:11:25;;;;;;;39.08;20.60;;;7.90;99.90;;;;;;4951516;28;20528;-68
2021/12/28 04:13:54;;;;;;;41.15;19.98;;;8.00;99.90;;;;;;4951264;28;20066;-67
2021/12/28 04:16:20;;;;;;;39.90;20.02;;;8.00;99.90;;;;;;4951387;28;20070;-68
2021/12/28 04:18:47;;;;;;;46.88;21.15;;;7.90;99.90;;;;;;4966637;28;20094;-68
2021/12/28 04:21:13;;;;;;;45.05;21.40;;;7.90;99.90;;;;;;5000741;28;20054;-68
2021/12/28 04:23:40;;;;;;;40.85;19.63;;;7.90;99.90;;;;;;4970568;28;20047;-68
2021/12/28 04:26:06;;;;;;;37.70;19.25;;;7.80;99.90;;;;;;4986553;28;20053;-67
2021/12/28 04:28:32;;;;;;;44.67;20.02;;;7.80;99.90;;;;;;5002975;28;20042;-68
2021/12/28 04:30:58;;;;;;;36.35;17.52;;;7.80;99.90;;;;;;5002568;28;20459;-69
2021/12/28 04:33:24;;;;;;;38.97;18.52;;;7.70;99.90;;;;;;4997480;28;20038;-68
2021/12/28 04:35:50;;;;;;;42.28;18.80;;;7.70;99.90;;;;;;5022460;28;20046;-67
2021/12/28 04:38:16;;;;;;;40.60;18.20;;;7.70;99.90;;;;;;5022524;28;20108;-67
2021/12/28 04:40:42;;;;;;;33.17;16.13;;;7.70;99.90;;;;;;4989788;28;20081;-67
2021/12/28 04:43:08;;;;;;;31.40;15.95;;;7.70;99.90;;;;;;4989404;28;20577;-68
2021/12/28 04:45:38;;;;;;;35.55;17.40;;;7.70;99.90;;;;;;5005617;28;20046;-68
2021/12/28 04:48:06;;;;;;;26.55;14.90;;;7.70;99.90;;;;;;4989623;28;20045;-68
2021/12/28 04:50:38;;;;;;;33.35;16.83;;;7.70;99.90;;;;;;4986904;28;20551;-67
2021/12/28 04:53:10;;;;;;;40.40;17.42;;;7.70;99.90;;;;;;4989244;28;20038;-68
2021/12/28 04:55:45;;;;;;;32.63;15.68;;;7.70;99.90;;;;;;4989313;28;20121;-68
2021/12/28 04:58:11;;;;;;;31.35;16.75;;;7.70;99.90;;;;;;4989375;28;20125;-67
2021/12/28 05:00:38;;;;;;;34.70;15.93;;;7.70;99.90;;;;;;5021964;28;20056;-67
2021/12/28 05:03:05;;;;;;;34.67;15.52;;;7.70;99.90;;;;;;4972910;28;20070;-68
2021/12/28 05:05:31;;;;;;;26.80;15.40;;;7.60;99.90;;;;;;4989430;28;20057;-68
2021/12/28 05:07:57;;;;;;;30.20;16.52;;;7.70;99.90;;;;;;4989041;28;20052;-67
2021/12/28 05:10:23;;;;;;;33.63;15.68;;;7.70;99.90;;;;;;4989081;28;20103;-68
2021/12/28 05:12:50;;;;;;;26.70;14.88;;;7.70;99.90;;;;;;5021766;28;20494;-67
2021/12/28 05:15:17;;;;;;;29.73;13.65;;;7.70;99.90;;;;;;5005414;28;20049;-67
2021/12/28 05:17:44;;;;;;;24.27;11.57;;;7.70;99.90;;;;;;4998039;28;20057;-68
2021/12/28 05:20:10;;;;;;;26.40;13.80;;;7.70;99.90;;;;;;4967246;28;20525;-67
2021/12/28 05:22:36;;;;;;;20.35;11.45;;;7.70;99.90;;;;;;4953383;28;20050;-68
2021/12/28 05:25:03;;;;;;;26.23;10.50;;;7.80;99.90;;;;;;4969659;28;20038;-67
2021/12/28 05:27:29;;;;;;;30.92;13.00;;;7.80;99.90;;;;;;4985538;28;20057;-67
2021/12/28 05:29:56;;;;;;;28.35;13.23;;;7.80;99.90;;;;;;5001860;28;20046;-67
2021/12/28 05:32:21;;;;;;;27.58;13.15;;;7.80;99.90;;;;;;4998850;28;20041;-68
2021/12/28 05:34:47;;;;;;;26.58;13.18;;;7.80;99.90;;;;;;4934379;28;20138;-67
2021/12/28 05:37:13;;;;;;;26.85;12.35;;;7.80;99.90;;;;;;4949976;28;20047;-67
2021/12/28 05:39:39;;;;;;;22.10;10.98;;;7.80;99.90;;;;;;4950187;29;20047;-68
2021/12/28 05:42:06;;;;;;;25.45;11.93;;;7.80;99.90;;;;;;4934316;29;20484;-67
2021/12/28 05:44:32;;;;;;;22.05;11.80;;;7.90;99.90;;;;;;4934457;29;20403;-68
2021/12/28 05:46:57;;;;;;;22.23;11.75;;;7.90;99.90;;;;;;4949875;29;20053;-68
2021/12/28 05:49:24;;;;;;;28.30;13.45;;;7.80;99.90;;;;;;4947484;29;20055;-67
2021/12/28 05:51:50;;;;;;;31.05;14.15;;;7.80;99.90;;;;;;4949855;28;20039;-68
2021/12/28 05:54:17;;;;;;;23.10;12.07;;;7.80;99.90;;;;;;4949655;28;20039;-68
2021/12/28 05:56:44;;;;;;;25.13;12.60;;;7.90;99.90;;;;;;4949804;28;20039;-68
2021/12/28 05:59:10;;;;;;;28.20;11.98;;;7.80;99.90;;;;;;4949709;28;20583;-68
2021/12/28 06:01:36;;;;;;;26.05;11.70;;;7.80;99.90;;;;;;4950032;29;20285;-67
2021/12/28 06:04:02;;;;;;;30.15;12.13;;;7.80;99.90;;;;;;4949676;28;20419;-67
2021/12/28 06:06:28;;;;;;;23.08;11.38;;;7.80;99.90;;;;;;4933973;29;20495;-67
2021/12/28 06:08:54;;;;;;;28.38;10.98;;;7.80;99.90;;;;;;4949477;28;20080;-68
2021/12/28 06:11:20;;;;;;;23.17;11.27;;;7.80;99.90;;;;;;4949850;29;20050;-68
2021/12/28 06:13:47;;;;;;;30.73;13.38;;;7.70;99.90;;;;;;4949782;29;20144;-67
2021/12/28 06:16:14;;;;;;;23.40;11.73;;;7.80;99.90;;;;;;4982124;28;20043;-68
2021/12/28 06:18:41;;;;;;;25.48;12.43;;;7.80;99.90;;;;;;4964051;28;20522;-67
2021/12/28 06:21:07;;;;;;;27.17;12.48;;;7.70;99.90;;;;;;4998844;28;20548;-67
2021/12/28 06:23:33;;;;;;;25.17;11.90;;;7.80;99.90;;;;;;5004327;28;20045;-67
2021/12/28 06:25:59;;;;;;;26.13;12.50;;;7.70;99.90;;;;;;4972423;28;20154;-67
2021/12/28 06:28:26;;;;;;;26.20;12.48;;;7.70;99.90;;;;;;4988467;28;20050;-68
2021/12/28 06:30:53;;;;;;;21.55;10.88;;;7.70;99.90;;;;;;5004516;28;20384;-67
2021/12/28 06:33:20;;;;;;;21.33;10.25;;;7.70;99.90;;;;;;4998571;28;20125;-67
2021/12/28 06:35:49;;;;;;;30.63;11.13;;;7.70;99.90;;;;;;4991445;28;20045;-67
2021/12/28 06:38:18;;;;;;;25.08;11.48;;;7.70;99.90;;;;;;4991309;28;20038;-67
2021/12/28 06:40:44;;;;;;;25.48;10.45;;;7.70;99.90;;;;;;4991598;28;20056;-68
2021/12/28 06:43:10;;;;;;;23.75;10.98;;;7.70;99.90;;;;;;4991479;28;20046;-67
2021/12/28 06:45:36;;;;;;;23.77;11.02;;;7.70;99.90;;;;;;4991229;28;20111;-67
2021/12/28 06:48:03;;;;;;;22.08;10.77;;;7.70;99.90;;;;;;4991161;28;20051;-67
2021/12/28 06:50:29;;;;;;;27.42;11.60;;;7.70;99.90;;;;;;4988911;28;20042;-68
2021/12/28 06:52:55;;;;;;;23.00;10.43;;;7.60;99.90;;;;;;4991086;28;20487;-67
2021/12/28 06:55:21;;;;;;;24.63;11.25;;;7.60;99.90;;;;;;4991333;28;20046;-68
2021/12/28 06:57:47;;;;;;;20.45;10.57;;;7.60;99.90;;;;;;4991143;28;20077;-68
2021/12/28 07:00:16;;;;;;;20.83;11.13;;;7.60;99.90;;;;;;4990970;28;20049;-68
2021/12/28 07:02:43;;;;;;;23.20;11.00;;;7.60;99.90;;;;;;4974771;28;20494;-68
2021/12/28 07:05:09;;;;;;;25.30;10.45;;;7.60;99.90;;;;;;5007186;28;20046;-68
2021/12/28 07:07:36;;;;;;;27.98;10.50;;;7.50;99.90;;;;;;4991495;28;20061;-68
2021/12/28 07:10:03;;;;;;;18.33;11.00;;;7.50;99.90;;;;;;4990732;28;20042;-68
2021/12/28 07:12:29;;;;;;;22.08;9.65;;;7.50;99.90;;;;;;4990922;28;20046;-67
2021/12/28 07:14:55;;;;;;;25.17;9.45;;;7.50;99.90;;;;;;4974743;28;20065;-67
2021/12/28 07:17:21;;;;;;;25.17;9.52;;;7.60;99.90;;;;;;4986522;28;20410;-68
2021/12/28 07:19:47;;;;;;;21.67;10.20;;;7.50;99.90;;;;;;5001299;28;20058;-68
2021/12/28 07:22:13;;;;;;;22.92;10.00;;;7.60;99.90;;;;;;4955203;28;20092;-68
2021/12/28 07:24:39;;;;;;;21.58;10.35;;;7.60;99.90;;;;;;5003742;28;20522;-68
2021/12/28 07:27:06;;;;;;;18.98;8.98;;;7.60;99.90;;;;;;4971261;28;20050;-68
2021/12/28 07:29:33;;;;;;;23.40;9.95;;;7.60;99.90;;;;;;4971248;28;20108;-68
2021/12/28 07:32:02;;;;;;;29.15;11.18;;;7.60;99.90;;;;;;4971427;28;20085;-68
2021/12/28 07:34:28;;;;;;;19.13;8.70;;;7.60;99.90;;;;;;4966470;28;20101;-68
2021/12/28 07:36:54;;;;;;;18.15;8.50;;;7.60;99.90;;;;;;4951790;29;20043;-68
2021/12/28 07:39:20;;;;;;;25.75;9.05;;;7.60;99.90;;;;;;4935803;29;20043;-68
2021/12/28 07:41:45;;;;;;;21.65;8.88;;;7.60;99.90;;;;;;4935798;29;20047;-68
2021/12/28 07:44:11;;;;;;;21.60;9.27;;;7.60;99.90;;;;;;4951897;28;20082;-68
2021/12/28 07:46:37;;;;;;;23.88;8.32;;;7.60;99.90;;;;;;4951698;29;20442;-68
2021/12/28 07:49:03;;;;;;;23.80;9.45;;;7.60;99.90;;;;;;4950830;29;20134;-68
2021/12/28 07:51:29;;;;;;;22.25;7.40;;;7.70;99.90;;;;;;4934851;29;20046;-68
2021/12/28 07:53:55;;;;;;;19.88;8.52;;;7.60;99.90;;;;;;4951554;29;20047;-68
2021/12/28 07:56:21;;;;;;;22.15;8.77;;;7.70;99.90;;;;;;4935621;29;20040;-68
2021/12/28 07:58:47;;;;;;;18.80;9.38;;;7.70;99.90;;;;;;4951680;29;20054;-68
2021/12/28 08:01:12;;;;;;;20.98;9.35;;;7.60;99.90;;;;;;4935610;29;20411;-68
2021/12/28 08:03:38;;;;;;;20.63;8.45;;;7.60;99.90;;;;;;4951603;29;20043;-69
2021/12/28 08:06:04;;;;;;;24.77;9.52;;;7.60;99.90;;;;;;4951341;28;20706;-68
2021/12/28 08:08:30;;;;;;;23.15;8.65;;;7.60;99.90;;;;;;4951613;28;20176;-68
2021/12/28 08:10:57;;;;;;;18.98;8.55;;;7.70;99.90;;;;;;4935071;29;20058;-68
2021/12/28 08:13:23;;;;;;;17.05;7.88;;;7.70;99.90;;;;;;4951245;29;20047;-68
2021/12/28 08:15:49;;;;;;;24.67;8.65;;;7.70;99.90;;;;;;4951152;29;20043;-68
2021/12/28 08:18:14;;;;;;;24.30;9.10;;;7.70;99.90;;;;;;4961590;28;20073;-68
2021/12/28 08:20:40;;;;;;;13.40;5.95;;;7.70;99.90;;;;;;4933196;28;20422;-68
2021/12/28 08:23:07;;;;;;;20.33;7.55;;;7.60;99.90;;;;;;4951416;29;20117;-68
2021/12/28 08:25:33;;;;;;;21.60;7.93;;;7.60;99.90;;;;;;4951058;29;20055;-68
2021/12/28 08:28:01;;;;;;;22.35;9.18;;;7.60;99.90;;;;;;4935144;29;20043;-68
2021/12/28 08:30:27;;;;;;;23.40;8.35;;;7.60;99.90;;;;;;4935100;28;20047;-68
2021/12/28 08:32:53;;;;;;;18.98;7.97;;;7.60;99.90;;;;;;4957815;28;20472;-68
2021/12/28 08:35:19;;;;;;;24.52;7.97;;;7.50;99.90;;;;;;4970336;28;20046;-68
2021/12/28 08:37:45;;;;;;;22.33;6.65;;;7.50;99.90;;;;;;4970174;28;20522;-68
2021/12/28 08:40:12;;;;;;;29.88;9.52;;;7.50;99.90;;;;;;4970009;28;20047;-68
2021/12/28 08:42:38;;;;;;;23.85;8.25;;;7.60;99.90;;;;;;4970199;28;20129;-68
2021/12/28 08:45:06;;;;;;;24.65;9.40;;;7.60;99.90;;;;;;4969469;28;20125;-68
2021/12/28 08:47:32;;;;;;;24.75;7.72;;;7.60;99.90;;;;;;4969953;28;20138;-68
2021/12/28 08:49:59;;;;;;;23.75;8.20;;;7.70;99.90;;;;;;4967612;28;20047;-68
2021/12/28 08:52:26;;;;;;;26.17;7.07;;;7.70;99.90;;;;;;4954192;28;20126;-68
2021/12/28 08:54:52;;;;;;;20.92;8.20;;;7.80;99.90;;;;;;4969833;28;20038;-68
2021/12/28 08:57:20;;;;;;;19.48;8.93;;;7.90;99.90;;;;;;4970077;28;20047;-68
2021/12/28 08:59:46;;;;;;;17.85;7.88;;;7.90;99.90;;;;;;4969673;28;20105;-68
2021/12/28 09:02:13;;;;;;;23.85;8.70;;;8.00;99.90;;;;;;4969605;28;20054;-68
2021/12/28 09:04:43;;;;;;;18.88;8.18;;;8.00;99.90;;;;;;4969675;28;20038;-68
2021/12/28 09:07:17;;;;;;;18.88;7.65;;;8.00;99.90;;;;;;4969762;28;20096;-68
2021/12/28 09:09:44;;;;;;;18.63;8.23;;;8.10;99.90;;;;;;4969717;28;20399;-67
2021/12/28 09:12:10;;;;;;;18.83;9.05;;;8.10;99.90;;;;;;4969885;28;20118;-68
2021/12/28 09:14:37;;;;;;;22.05;8.50;;;8.20;99.90;;;;;;4969474;28;20042;-68
2021/12/28 09:17:03;;;;;;;22.38;9.50;;;8.20;99.90;;;;;;4969596;28;20491;-69
2021/12/28 09:19:30;;;;;;;18.95;7.88;;;8.20;99.90;;;;;;4967077;28;20455;-68
2021/12/28 09:21:56;;;;;;;21.67;10.05;;;8.30;99.90;;;;;;4969643;28;20108;-68
2021/12/28 09:24:22;;;;;;;20.85;9.05;;;8.30;99.90;;;;;;4969427;28;20407;-68
2021/12/28 09:26:48;;;;;;;16.40;9.75;;;8.30;99.90;;;;;;4969625;28;20038;-68
2021/12/28 09:29:13;;;;;;;22.67;11.45;;;8.30;99.90;;;;;;4969270;28;20140;-68
2021/12/28 09:31:39;;;;;;;21.70;9.80;;;8.30;99.90;;;;;;4969281;28;20121;-67
2021/12/28 09:34:05;;;;;;;22.70;10.68;;;8.30;99.90;;;;;;4953237;28;20043;-68
2021/12/28 09:36:31;;;;;;;19.88;9.25;;;8.30;99.90;;;;;;4968405;28;20050;-69
2021/12/28 09:38:57;;;;;;;22.10;9.15;;;8.30;99.90;;;;;;4969238;28;20070;-69
2021/12/28 09:41:22;;;;;;;18.55;8.77;;;8.40;99.90;;;;;;4969123;28;20049;-67
2021/12/28 09:43:48;;;;;;;26.27;11.55;;;8.40;99.90;;;;;;4969452;28;20046;-69
2021/12/28 09:46:16;;;;;;;19.48;9.52;;;8.40;99.90;;;;;;4969147;28;20475;-69
2021/12/28 09:48:41;;;;;;;29.40;13.27;;;8.40;99.90;;;;;;4969450;28;20442;-69
2021/12/28 09:51:07;;;;;;;22.65;11.20;;;8.40;99.90;;;;;;4950798;28;20050;-69
2021/12/28 09:53:33;;;;;;;23.15;11.50;;;8.40;99.90;;;;;;4953098;28;20039;-69
2021/12/28 09:55:59;;;;;;;20.05;9.77;;;8.40;99.90;;;;;;4968814;28;20051;-70
2021/12/28 09:58:26;;;;;;;20.45;10.10;;;8.40;99.90;;;;;;4968462;28;20391;-70
2021/12/28 10:00:51;;;;;;;19.08;10.73;;;8.40;99.90;;;;;;4968909;28;20549;-70
2021/12/28 10:03:18;;;;;;;24.80;10.73;;;8.40;99.90;;;;;;4953312;28;20138;-70
2021/12/28 10:05:44;;;;;;;20.30;11.50;;;8.40;99.90;;;;;;4968683;28;20050;-71
2021/12/28 10:08:10;;;;;;;18.98;11.55;;;8.40;99.90;;;;;;4969197;28;20078;-70
2021/12/28 10:10:39;;;;;;;23.95;10.88;;;8.50;99.90;;;;;;4968885;28;20043;-70
2021/12/28 10:13:09;;;;;;;12.57;7.35;;;8.50;99.90;;;;;;4953031;28;20046;-70
2021/12/28 10:15:38;;;;;;;20.55;10.13;;;8.50;99.90;;;;;;4952747;28;20134;-70
2021/12/28 10:18:08;;;;;;;20.23;10.03;;;8.50;99.90;;;;;;4976587;28;20131;-71
2021/12/28 10:20:39;;;;;;;21.38;10.98;;;8.50;99.90;;;;;;5051862;28;20048;-70
2021/12/28 10:23:10;;;;;;;13.65;10.10;;;8.50;99.90;;;;;;5070197;28;20037;-71
2021/12/28 10:25:39;;;;;;;21.75;10.98;;;8.60;99.90;;;;;;5070261;28;20119;-71
2021/12/28 10:28:12;;;;;;;19.13;9.63;;;8.60;99.90;;;;;;5070280;28;20044;-71
2021/12/28 10:30:42;;;;;;;16.55;8.02;;;8.60;99.90;;;;;;5070165;28;20811;-71
2021/12/28 10:33:17;;;;;;;14.10;9.52;;;8.60;99.90;;;;;;5070401;28;20048;-71
2021/12/28 10:35:46;;;;;;;14.20;8.75;;;8.70;99.90;;;;;;5070033;28;20041;-71
2021/12/28 10:38:17;;;;;;;15.82;9.70;;;8.70;99.90;;;;;;5070132;28;20515;-71
2021/12/28 10:40:47;;;;;;;15.55;9.95;;;8.70;99.90;;;;;;5069995;28;20105;-70
2021/12/28 10:43:17;;;;;;;17.88;10.23;;;8.70;99.90;;;;;;5070085;28;20132;-71
2021/12/28 10:45:45;;;;;;;;;;;8.70;99.90;;;;;;5070626;28;20041;-69
2021/12/28 10:48:13;;;;;;;16.95;10.35;;;8.70;99.90;;;;;;5070028;28;19923;-71
2021/12/28 10:50:45;;;;;;;16.40;7.85;;;8.70;99.90;;;;;;5067553;28;20044;-72
2021/12/28 10:53:22;;;;;;;16.77;9.30;;;8.70;99.90;;;;;;5070259;28;20036;-71
2021/12/28 10:55:59;;;;;;;11.68;6.68;;;8.70;99.90;;;;;;5069965;28;20090;-72
2021/12/28 10:58:41;;;;;;;15.40;8.70;;;8.70;99.90;;;;;;5069973;28;20099;-73
2021/12/28 11:01:13;;;;;;;14.15;8.52;;;8.80;99.90;;;;;;5069818;28;20127;-74
2021/12/28 11:03:42;;;;;;;11.70;8.30;;;8.70;99.90;;;;;;5070192;28;20435;-75
2021/12/28 11:06:15;;;;;;;16.10;8.05;;;8.70;99.90;;;;;;5069769;28;20040;-75
2021/12/28 11:08:44;;;;;;;13.25;7.95;;;8.70;99.90;;;;;;5071934;28;20049;-75
2021/12/28 11:11:13;;;;;;;12.40;7.43;;;8.80;99.90;;;;;;5044070;28;20102;-78
2021/12/28 11:13:39;;;;;;;7.20;4.72;;;8.80;99.90;;;;;;5056592;28;20090;-74
2021/12/28 11:16:10;;;;;;;11.55;5.57;;;8.80;99.90;;;;;;5073218;28;20055;-74
2021/12/28 11:18:51;;;;;;;9.30;6.47;;;8.80;99.90;;;;;;5056400;28;20044;-74
2021/12/28 11:21:24;;;;;;;9.15;5.75;;;8.90;99.90;;;;;;5070677;28;20078;-73
2021/12/28 11:23:53;;;;;;;10.15;6.25;;;8.90;99.90;;;;;;5073071;28;20040;-75
2021/12/28 11:26:19;;;;;;;6.50;4.65;;;8.90;99.90;;;;;;5073072;28;20040;-73
2021/12/28 11:29:19;;;;;;;9.73;5.38;;;8.90;99.90;;;;;;5073335;28;20050;-74
2021/12/28 11:32:06;;;;;;;7.00;3.72;;;8.90;99.90;;;;;;5073191;28;20052;-74
2021/12/28 11:34:35;;;;;;;7.43;4.38;;;8.90;99.90;;;;;;4935962;29;20083;-73
2021/12/28 11:37:10;;;;;;;6.43;5.32;;;8.90;99.90;;;;;;4936032;29;20036;-73
2021/12/28 11:39:42;;;;;;;6.32;3.85;;;8.90;99.90;;;;;;4935905;28;20054;-73
2021/12/28 11:42:09;;;;;;;7.47;4.35;;;9.00;99.90;;;;;;4951941;29;20404;-73
2021/12/28 11:44:37;;;;;;;6.28;4.20;;;9.00;99.90;;;;;;4935779;29;20047;-73
2021/12/28 11:47:07;;;;;;;8.27;5.80;;;9.00;99.90;;;;;;4935603;28;20503;-72
2021/12/28 11:49:33;;;;;;;9.82;5.40;;;9.00;99.90;;;;;;4949169;29;20383;-73
2021/12/28 11:52:04;;;;;;;7.30;4.60;;;9.00;99.90;;;;;;4951469;29;20585;-74
2021/12/28 11:54:35;;;;;;;7.63;4.85;;;9.10;99.90;;;;;;4951612;29;20118;-73
2021/12/28 11:57:29;;;;;;;10.23;5.40;;;9.10;99.90;;;;;;4951491;29;20047;-73
2021/12/28 11:59:58;;;;;;;6.82;4.28;;;9.10;99.90;;;;;;4966034;28;20051;-72
2021/12/28 12:02:49;;;;;;;7.05;4.75;;;9.10;99.90;;;;;;4951309;29;20054;-72
2021/12/28 12:05:26;;;;;;;7.80;4.32;;;9.10;99.90;;;;;;4951364;28;20708;-72
2021/12/28 12:08:15;;;;;;;6.63;5.28;;;9.10;99.90;;;;;;4951308;29;20095;-72
2021/12/28 12:10:44;;;;;;;10.27;5.30;;;9.10;99.90;;;;;;4951382;29;20130;-73
2021/12/28 12:13:13;;;;;;;7.18;5.07;;;9.10;99.90;;;;;;4951443;29;20430;-73
2021/12/28 12:15:41;;;;;;;9.75;6.05;;;9.20;99.90;;;;;;4951551;28;20066;-72
2021/12/28 12:18:13;;;;;;;8.40;5.88;;;9.10;99.90;;;;;;4956038;28;20059;-73
2021/12/28 12:20:46;;;;;;;8.82;6.30;;;9.10;99.90;;;;;;4980589;28;20471;-72
2021/12/28 12:23:15;;;;;;;6.72;4.18;;;9.20;99.90;;;;;;4983333;28;20051;-73
2021/12/28 12:25:58;;;;;;;8.32;5.55;;;9.20;99.90;;;;;;4951290;29;20105;-72
2021/12/28 12:28:35;;;;;;;10.30;5.70;;;9.20;99.90;;;;;;4951036;29;20051;-72
2021/12/28 12:31:03;;;;;;;7.40;6.28;;;9.20;99.90;;;;;;4950986;28;20043;-72
2021/12/28 12:33:43;;;;;;;8.32;6.32;;;9.20;99.90;;;;;;4962528;28;20078;-73
2021/12/28 12:36:22;;;;;;;7.90;5.68;;;9.20;99.90;;;;;;4954122;28;20057;-72
2021/12/28 12:38:49;;;;;;;7.55;5.63;;;9.20;99.90;;;;;;4969036;28;20519;-74
2021/12/28 12:41:19;;;;;;;7.90;5.07;;;9.20;99.90;;;;;;4969971;28;20046;-76
2021/12/28 12:43:50;;;;;;;;;;;9.20;99.90;;;;;;4970497;28;20046;-74